createdAt,value
2023-04-09T00:00:22.779Z,40.17
2023-04-09T00:02:49.245Z,35.83
2023-04-09T00:05:15.858Z,35.63
2023-04-09T00:07:44.360Z,33.88
2023-04-09T00:10:11.171Z,41.67
2023-04-09T00:12:37.630Z,51.03
2023-04-09T00:15:04.340Z,49.05
2023-04-09T00:17:30.797Z,49.38
2023-04-09T00:19:57.244Z,52.67
2023-04-09T00:22:23.720Z,48.20
2023-04-09T00:24:50.186Z,50.38
2023-04-09T00:27:16.749Z,51.03
2023-04-09T00:29:43.247Z,47.47
2023-04-09T00:32:09.738Z,46.40
2023-04-09T00:34:36.242Z,44.83
2023-04-09T00:37:02.677Z,33.63
2023-04-09T00:39:29.106Z,32.15
2023-04-09T00:41:57.023Z,30.63
2023-04-09T00:44:23.468Z,28.52
2023-04-09T00:46:49.933Z,27.52
2023-04-09T00:49:16.743Z,25.40
2023-04-09T00:51:45.044Z,25.88
2023-04-09T00:54:12.039Z,24.52
2023-04-09T00:56:38.587Z,24.65
2023-04-09T00:59:05.051Z,24.67
2023-04-09T01:03:57.975Z,26.60
2023-04-09T01:06:45.376Z,25.90
2023-04-09T01:09:20.581Z,25.13
2023-04-09T01:12:04.147Z,27.17
2023-04-09T01:14:38.922Z,26.70
2023-04-09T01:17:11.131Z,25.25
2023-04-09T01:19:54.015Z,21.90
2023-04-09T01:22:31.486Z,27.27
2023-04-09T01:25:42.651Z,26.45
2023-04-09T01:28:23.740Z,26.95
2023-04-09T01:30:56.940Z,29.08
2023-04-09T01:33:25.348Z,29.88
2023-04-09T01:35:53.631Z,29.05
2023-04-09T01:38:21.711Z,26.92
2023-04-09T01:40:50.230Z,27.17
2023-04-09T01:43:17.797Z,27.05
2023-04-09T01:48:13.974Z,31.38
2023-04-09T01:50:40.679Z,31.30
2023-04-09T01:53:07.577Z,30.20
2023-04-09T01:55:34.027Z,26.55
2023-04-09T01:58:00.488Z,27.13
2023-04-09T02:00:35.102Z,26.48
2023-04-09T02:03:29.153Z,25.90
2023-04-09T02:06:12.358Z,28.45
2023-04-09T02:08:39.307Z,24.48
2023-04-09T02:11:09.893Z,24.55
2023-04-09T02:13:40.108Z,26.05
2023-04-09T02:16:07.584Z,25.70
2023-04-09T02:21:00.922Z,21.80
2023-04-09T02:23:27.380Z,22.67
2023-04-09T02:25:54.100Z,23.42
2023-04-09T02:28:20.616Z,26.33
2023-04-09T02:30:47.103Z,25.25
2023-04-09T02:33:13.595Z,24.30
2023-04-09T02:35:40.122Z,24.25
2023-04-09T02:38:06.645Z,25.00
2023-04-09T02:40:33.065Z,24.27
2023-04-09T02:42:59.529Z,25.67
2023-04-09T02:45:25.979Z,24.85
2023-04-09T02:47:52.489Z,25.80
2023-04-09T02:50:19.192Z,25.58
2023-04-09T02:52:48.438Z,22.05
2023-04-09T02:55:15.435Z,22.35
2023-04-09T02:57:41.946Z,24.10
2023-04-09T03:00:09.482Z,23.13
2023-04-09T03:05:02.930Z,22.60
2023-04-09T03:07:29.460Z,23.67
2023-04-09T03:09:55.904Z,24.00
2023-04-09T03:12:22.486Z,24.80
2023-04-09T03:14:48.934Z,24.77
2023-04-09T03:17:15.378Z,26.02
2023-04-09T03:19:41.867Z,30.73
2023-04-09T03:22:08.326Z,29.75
2023-04-09T03:24:34.808Z,34.95
2023-04-09T03:27:01.264Z,34.50
2023-04-09T03:29:27.701Z,35.22
2023-04-09T03:31:54.175Z,31.17
2023-04-09T03:34:20.658Z,34.47
2023-04-09T03:36:47.145Z,34.42
2023-04-09T03:39:13.585Z,34.33
2023-04-09T03:41:40.046Z,33.33
2023-04-09T03:44:06.523Z,31.65
2023-04-09T03:46:33.067Z,33.33
2023-04-09T03:48:59.620Z,26.90
2023-04-09T03:51:26.066Z,26.83
2023-04-09T03:53:52.744Z,29.20
2023-04-09T03:56:19.274Z,26.83
2023-04-09T03:58:45.691Z,28.75
2023-04-09T04:01:12.125Z,27.00
2023-04-09T04:03:38.766Z,25.75
2023-04-09T04:06:05.553Z,24.77
2023-04-09T04:08:31.998Z,25.13
2023-04-09T04:11:04.045Z,25.60
2023-04-09T04:13:30.561Z,26.10
2023-04-09T04:15:57.152Z,26.60
2023-04-09T04:18:23.626Z,26.63
2023-04-09T04:20:50.093Z,28.48
2023-04-09T04:23:16.528Z,28.48
2023-04-09T04:25:43.048Z,30.80
2023-04-09T04:28:09.486Z,34.60
2023-04-09T04:30:35.971Z,33.75
2023-04-09T04:33:02.517Z,36.20
2023-04-09T04:35:29.075Z,35.28
2023-04-09T04:37:55.550Z,37.25
2023-04-09T04:40:22.197Z,38.30
2023-04-09T04:42:48.625Z,38.20
2023-04-09T04:45:15.145Z,39.20
2023-04-09T04:47:41.662Z,40.45
2023-04-09T04:50:08.894Z,38.42
2023-04-09T04:52:36.366Z,40.60
2023-04-09T04:57:29.192Z,38.05
2023-04-09T04:59:55.637Z,39.10
2023-04-09T05:02:22.274Z,44.90
2023-04-09T05:04:48.820Z,42.95
2023-04-09T05:07:16.011Z,41.70
2023-04-09T05:09:42.458Z,44.70
2023-04-09T05:12:08.902Z,114.20
2023-04-09T05:14:35.369Z,179.30
2023-04-09T05:17:01.924Z,265.75
2023-04-09T05:19:28.417Z,413.85
2023-04-09T05:21:54.871Z,280.00
2023-04-09T05:24:21.328Z,216.90
2023-04-09T05:26:47.857Z,70.65
2023-04-09T05:29:14.335Z,93.88
2023-04-09T05:31:40.778Z,86.32
2023-04-09T05:34:07.271Z,66.93
2023-04-09T05:36:33.777Z,53.10
2023-04-09T05:39:00.242Z,52.47
2023-04-09T05:41:26.681Z,85.85
2023-04-09T05:43:53.444Z,84.70
2023-04-09T05:46:20.128Z,36.88
2023-04-09T05:48:46.576Z,36.10
2023-04-09T05:51:13.012Z,35.55
2023-04-09T05:53:39.493Z,34.75
2023-04-09T05:56:16.004Z,52.90
2023-04-09T05:58:42.899Z,55.28
2023-04-09T06:01:09.458Z,49.10
2023-04-09T06:03:36.123Z,44.85
2023-04-09T06:06:02.684Z,41.38
2023-04-09T06:08:29.167Z,40.90
2023-04-09T06:10:55.604Z,40.75
2023-04-09T06:13:22.158Z,40.08
2023-04-09T06:15:48.660Z,37.53
2023-04-09T06:18:15.183Z,41.95
2023-04-09T06:20:41.677Z,40.67
2023-04-09T06:23:08.117Z,40.35
2023-04-09T06:25:35.886Z,42.15
2023-04-09T06:28:02.486Z,39.28
2023-04-09T06:30:29.563Z,38.83
2023-04-09T06:32:56.033Z,38.58
2023-04-09T06:35:23.038Z,37.85
2023-04-09T06:37:49.525Z,83.47
2023-04-09T06:40:16.075Z,40.10
2023-04-09T06:42:42.599Z,36.95
2023-04-09T06:45:09.541Z,32.47
2023-04-09T06:47:36.370Z,33.22
2023-04-09T06:50:03.389Z,33.13
2023-04-09T06:52:29.960Z,33.85
2023-04-09T06:54:56.395Z,37.35
2023-04-09T06:57:22.900Z,50.53
2023-04-09T06:59:49.392Z,62.67
2023-04-09T07:02:16.016Z,51.80
2023-04-09T07:04:42.670Z,38.92
2023-04-09T07:07:09.429Z,40.17
2023-04-09T07:09:35.934Z,34.72
2023-04-09T07:12:02.458Z,38.60
2023-04-09T07:14:29.017Z,43.33
2023-04-09T07:16:55.466Z,37.55
2023-04-09T07:19:21.971Z,31.35
2023-04-09T07:21:48.447Z,35.25
2023-04-09T07:24:14.905Z,30.95
2023-04-09T07:26:41.367Z,35.78
2023-04-09T07:29:07.820Z,34.55
2023-04-09T07:31:35.854Z,106.65
2023-04-09T07:34:02.609Z,48.63
2023-04-09T07:36:29.108Z,35.75
2023-04-09T07:38:55.607Z,34.20
2023-04-09T07:41:22.174Z,28.83
2023-04-09T07:43:48.648Z,26.10
2023-04-09T07:46:21.440Z,27.65
2023-04-09T07:48:48.484Z,29.00
2023-04-09T07:51:15.136Z,48.97
2023-04-09T07:53:41.590Z,57.65
2023-04-09T07:56:08.119Z,170.32
2023-04-09T07:58:34.574Z,43.40
2023-04-09T08:01:01.022Z,41.63
2023-04-09T08:03:27.724Z,37.20
2023-04-09T08:05:54.459Z,31.42
2023-04-09T08:08:20.904Z,31.92
2023-04-09T08:10:47.347Z,32.38
2023-04-09T08:13:13.820Z,34.83
2023-04-09T08:15:41.438Z,35.22
2023-04-09T08:18:07.935Z,30.75
2023-04-09T08:20:34.697Z,29.33
2023-04-09T08:23:01.176Z,42.42
2023-04-09T08:25:27.656Z,32.08
2023-04-09T08:27:54.058Z,35.30
2023-04-09T08:30:20.563Z,32.90
2023-04-09T08:32:47.067Z,42.22
2023-04-09T08:35:13.608Z,47.70
2023-04-09T08:37:40.056Z,42.72
2023-04-09T08:40:07.254Z,37.08
2023-04-09T08:42:34.544Z,54.30
2023-04-09T08:45:04.324Z,58.60
2023-04-09T08:47:32.404Z,48.42
2023-04-09T08:49:59.269Z,62.47
2023-04-09T08:52:32.730Z,58.15
2023-04-09T08:54:59.406Z,45.75
2023-04-09T08:57:26.648Z,34.22
2023-04-09T08:59:53.140Z,42.10
2023-04-09T09:02:19.651Z,34.97
2023-04-09T09:04:47.780Z,29.85
2023-04-09T09:07:15.794Z,55.78
2023-04-09T09:09:55.818Z,69.30
2023-04-09T09:12:38.426Z,27.13
2023-04-09T09:15:28.302Z,26.77
2023-04-09T09:17:56.965Z,26.85
2023-04-09T09:20:24.300Z,21.92
2023-04-09T09:22:55.722Z,26.98
2023-04-09T09:25:22.970Z,27.02
2023-04-09T09:27:49.453Z,32.70
2023-04-09T09:30:42.520Z,32.00
2023-04-09T09:33:10.565Z,32.63
2023-04-09T09:35:54.014Z,31.90
2023-04-09T09:38:20.869Z,31.80
2023-04-09T09:40:47.906Z,46.47
2023-04-09T09:43:14.700Z,113.43
2023-04-09T09:45:42.038Z,39.40
2023-04-09T09:48:11.373Z,37.33
2023-04-09T09:50:39.021Z,36.40
2023-04-09T09:53:06.797Z,29.33
2023-04-09T09:55:37.943Z,34.35
2023-04-09T09:58:12.543Z,31.80
2023-04-09T10:00:40.804Z,29.45
2023-04-09T10:03:22.832Z,31.95
2023-04-09T10:05:50.372Z,31.27
2023-04-09T10:08:17.972Z,25.88
2023-04-09T10:10:45.276Z,31.98
2023-04-09T10:15:41.790Z,28.85
2023-04-09T10:18:08.594Z,30.10
2023-04-09T10:20:54.568Z,34.13
2023-04-09T10:23:44.328Z,29.10
2023-04-09T10:26:11.185Z,31.58
2023-04-09T10:28:38.027Z,26.35
2023-04-09T10:31:05.943Z,27.98
2023-04-09T10:33:32.481Z,27.73
2023-04-09T10:36:10.435Z,28.58
2023-04-09T10:38:41.788Z,27.70
2023-04-09T10:41:22.094Z,25.20
2023-04-09T10:43:48.653Z,29.30
2023-04-09T10:46:31.246Z,26.70
2023-04-09T10:49:10.826Z,30.58
2023-04-09T10:51:38.472Z,31.20
2023-04-09T10:54:06.207Z,30.40
2023-04-09T10:56:33.433Z,33.95
2023-04-09T10:58:59.883Z,35.95
2023-04-09T11:01:26.475Z,33.72
2023-04-09T11:04:14.808Z,32.65
2023-04-09T11:06:44.925Z,29.33
2023-04-09T11:09:11.380Z,39.13
2023-04-09T11:11:37.860Z,27.77
2023-04-09T11:14:04.482Z,28.95
2023-04-09T11:16:31.611Z,30.40
2023-04-09T11:18:58.221Z,24.98
2023-04-09T11:21:28.265Z,28.83
2023-04-09T11:23:54.766Z,29.80
2023-04-09T11:26:34.669Z,28.75
2023-04-09T11:29:05.686Z,30.23
2023-04-09T11:31:32.163Z,46.70
2023-04-09T11:33:58.635Z,26.38
2023-04-09T11:36:26.178Z,35.70
2023-04-09T11:38:52.840Z,32.63
2023-04-09T11:41:19.462Z,31.95
2023-04-09T11:43:45.929Z,34.03
2023-04-09T11:46:12.429Z,52.42
2023-04-09T11:48:39.154Z,49.60
2023-04-09T11:51:05.779Z,35.05
2023-04-09T11:53:32.216Z,52.00
2023-04-09T11:55:58.971Z,35.53
2023-04-09T11:58:26.323Z,32.55
2023-04-09T12:00:58.410Z,31.73
2023-04-09T12:03:31.837Z,34.90
2023-04-09T12:06:01.032Z,32.33
2023-04-09T12:08:27.669Z,27.88
2023-04-09T12:10:54.306Z,36.97
2023-04-09T12:13:21.426Z,31.88
2023-04-09T12:15:49.513Z,69.32
2023-04-09T12:18:16.112Z,34.25
2023-04-09T12:20:44.268Z,56.70
2023-04-09T12:23:12.202Z,38.35
2023-04-09T12:25:41.130Z,33.63
2023-04-09T12:28:11.608Z,26.00
2023-04-09T12:30:38.056Z,29.83
2023-04-09T12:33:04.752Z,25.88
2023-04-09T12:35:31.384Z,40.47
2023-04-09T12:37:57.861Z,28.50
2023-04-09T12:40:24.326Z,26.90
2023-04-09T12:42:51.067Z,21.48
2023-04-09T12:45:19.378Z,23.77
2023-04-09T12:47:46.017Z,38.03
2023-04-09T12:50:14.024Z,26.08
2023-04-09T12:52:40.746Z,32.72
2023-04-09T12:55:07.836Z,25.85
2023-04-09T12:57:34.790Z,24.55
2023-04-09T13:00:01.338Z,42.08
2023-04-09T13:02:27.949Z,24.20
2023-04-09T13:04:54.550Z,25.48
2023-04-09T13:07:21.147Z,25.80
2023-04-09T13:09:48.009Z,24.67
2023-04-09T13:12:14.530Z,24.08
2023-04-09T13:14:41.050Z,35.55
2023-04-09T13:17:07.603Z,34.40
2023-04-09T13:19:34.061Z,36.65
2023-04-09T13:22:00.531Z,24.52
2023-04-09T13:24:26.997Z,32.40
2023-04-09T13:26:53.458Z,28.45
2023-04-09T13:29:20.002Z,22.38
2023-04-09T13:31:46.489Z,25.65
2023-04-09T13:34:13.019Z,30.63
2023-04-09T13:36:39.472Z,28.90
2023-04-09T13:39:06.048Z,27.25
2023-04-09T13:41:33.438Z,26.88
2023-04-09T13:46:27.018Z,29.45
2023-04-09T13:48:53.984Z,24.85
2023-04-09T13:51:24.272Z,24.98
2023-04-09T13:53:50.773Z,26.50
2023-04-09T13:56:17.204Z,33.78
2023-04-09T13:58:43.724Z,28.00
2023-04-09T14:01:11.688Z,28.02
2023-04-09T14:03:38.514Z,26.95
2023-04-09T14:06:05.268Z,25.70
2023-04-09T14:08:31.758Z,26.00
2023-04-09T14:10:58.268Z,26.38
2023-04-09T14:13:24.752Z,26.48
2023-04-09T14:15:51.285Z,26.70
2023-04-09T14:18:17.748Z,27.60
2023-04-09T14:20:44.208Z,27.30
2023-04-09T14:23:10.782Z,21.85
2023-04-09T14:25:37.306Z,25.20
2023-04-09T14:28:04.048Z,24.60
2023-04-09T14:30:30.506Z,24.90
2023-04-09T14:32:57.038Z,27.70
2023-04-09T14:35:23.707Z,28.73
2023-04-09T14:37:50.166Z,31.70
2023-04-09T14:40:16.710Z,27.23
2023-04-09T14:42:43.135Z,28.33
2023-04-09T14:45:10.143Z,29.58
2023-04-09T14:47:36.652Z,30.52
2023-04-09T14:50:03.260Z,28.50
2023-04-09T14:52:29.754Z,26.50
2023-04-09T14:54:56.752Z,38.63
2023-04-09T14:57:23.366Z,50.20
2023-04-09T14:59:49.894Z,27.08
2023-04-09T15:02:17.111Z,22.77
2023-04-09T15:12:02.806Z,22.23
2023-04-09T15:14:31.135Z,29.77
2023-04-09T15:16:57.619Z,23.50
2023-04-09T15:19:24.089Z,40.63
2023-04-09T15:21:50.616Z,35.28
2023-04-09T15:24:17.089Z,44.38
2023-04-09T15:26:43.532Z,41.28
2023-04-09T15:29:10.227Z,32.83
2023-04-09T15:31:37.570Z,30.90
2023-04-09T15:34:04.904Z,41.88
2023-04-09T15:36:31.390Z,24.63
2023-04-09T15:38:58.071Z,31.55
2023-04-09T15:41:24.546Z,30.67
2023-04-09T15:43:51.173Z,28.08
2023-04-09T15:46:17.941Z,24.17
2023-04-09T15:48:44.737Z,22.75
2023-04-09T15:51:11.272Z,21.08
2023-04-09T15:53:37.755Z,22.08
2023-04-09T15:56:04.529Z,26.67
2023-04-09T15:58:31.386Z,28.60
2023-04-09T16:00:57.966Z,28.05
2023-04-09T16:03:24.507Z,23.70
2023-04-09T16:05:50.972Z,22.90
2023-04-09T16:08:17.417Z,23.88
2023-04-09T16:10:43.864Z,30.33
2023-04-09T16:13:10.371Z,32.47
2023-04-09T16:15:36.864Z,29.70
2023-04-09T16:18:03.375Z,49.25
2023-04-09T16:20:29.869Z,34.50
2023-04-09T16:22:56.313Z,46.58
2023-04-09T16:25:22.829Z,38.78
2023-04-09T16:27:49.318Z,32.15
2023-04-09T16:30:15.764Z,48.38
2023-04-09T16:32:42.306Z,46.13
2023-04-09T16:35:08.856Z,30.88
2023-04-09T16:37:35.296Z,39.42
2023-04-09T16:40:01.833Z,44.28
2023-04-09T16:42:28.389Z,53.42
2023-04-09T16:44:54.832Z,37.67
2023-04-09T16:47:21.318Z,33.45
2023-04-09T16:49:47.830Z,36.35
2023-04-09T16:52:14.334Z,27.58
2023-04-09T16:54:40.832Z,31.60
2023-04-09T16:57:07.303Z,31.63
2023-04-09T16:59:33.777Z,53.88
2023-04-09T17:02:00.327Z,54.20
2023-04-09T17:04:27.017Z,41.50
2023-04-09T17:06:53.621Z,38.50
2023-04-09T17:09:20.048Z,32.63
2023-04-09T17:11:46.541Z,37.78
2023-04-09T17:14:13.017Z,70.68
2023-04-09T17:16:39.467Z,71.75
2023-04-09T17:19:05.987Z,80.82
2023-04-09T17:21:32.409Z,104.25
2023-04-09T17:23:58.858Z,105.70
2023-04-09T17:26:25.381Z,94.85
2023-04-09T17:28:52.039Z,83.95
2023-04-09T17:31:18.842Z,105.32
2023-04-09T17:33:45.423Z,128.18
2023-04-09T17:36:11.870Z,90.20
2023-04-09T17:38:38.376Z,65.57
2023-04-09T17:41:07.380Z,57.28
2023-04-09T17:43:34.115Z,58.47
2023-04-09T17:46:00.631Z,59.90
2023-04-09T17:48:27.157Z,53.30
2023-04-09T17:50:53.703Z,63.45
2023-04-09T17:53:21.106Z,63.28
2023-04-09T17:55:48.882Z,64.38
2023-04-09T17:58:15.449Z,96.82
2023-04-09T18:00:42.182Z,154.18
2023-04-09T18:03:09.596Z,138.10
2023-04-09T18:05:36.451Z,117.13
2023-04-09T18:08:03.053Z,131.77
2023-04-09T18:10:29.701Z,131.18
2023-04-09T18:12:56.172Z,135.98
2023-04-09T18:15:22.708Z,157.10
2023-04-09T18:17:49.274Z,161.32
2023-04-09T18:20:15.814Z,187.93
2023-04-09T18:22:43.439Z,181.30
2023-04-09T18:25:10.240Z,208.25
2023-04-09T18:27:36.750Z,223.63
2023-04-09T18:30:03.425Z,144.23
2023-04-09T18:32:30.067Z,152.35
2023-04-09T18:34:56.505Z,153.50
2023-04-09T18:37:22.958Z,142.25
2023-04-09T18:39:49.405Z,154.00
2023-04-09T18:42:15.855Z,146.68
2023-04-09T18:44:42.305Z,155.80
2023-04-09T18:47:09.040Z,146.48
2023-04-09T18:49:36.208Z,135.45
2023-04-09T18:52:03.423Z,125.55
2023-04-09T18:54:29.965Z,117.00
2023-04-09T18:56:56.448Z,120.50
2023-04-09T18:59:22.920Z,103.90
2023-04-09T19:01:49.461Z,93.60
2023-04-09T19:04:16.050Z,109.75
2023-04-09T19:06:43.497Z,171.00
2023-04-09T19:09:10.000Z,156.13
2023-04-09T19:11:36.449Z,140.77
2023-04-09T19:14:03.001Z,128.70
2023-04-09T19:16:29.681Z,130.63
2023-04-09T19:18:56.216Z,118.80
2023-04-09T19:21:22.739Z,130.85
2023-04-09T19:23:49.255Z,132.85
2023-04-09T19:26:15.722Z,126.75
2023-04-09T19:28:42.178Z,135.52
2023-04-09T19:31:08.732Z,127.78
2023-04-09T19:33:35.265Z,99.22
2023-04-09T19:36:01.792Z,80.88
2023-04-09T19:38:28.262Z,79.75
2023-04-09T19:40:54.752Z,63.22
2023-04-09T19:43:21.212Z,74.45
2023-04-09T19:45:47.658Z,70.72
2023-04-09T19:48:14.154Z,78.63
2023-04-09T19:50:40.647Z,57.78
2023-04-09T19:53:07.301Z,57.63
2023-04-09T19:55:34.151Z,61.55
2023-04-09T19:58:00.986Z,61.72
2023-04-09T20:00:28.093Z,68.32
2023-04-09T20:02:55.508Z,80.75
2023-04-09T20:05:22.407Z,83.55
2023-04-09T20:07:49.589Z,82.82
2023-04-09T20:10:16.254Z,77.97
2023-04-09T20:12:47.182Z,70.65
2023-04-09T20:15:13.656Z,62.17
2023-04-09T20:17:40.140Z,68.78
2023-04-09T20:20:07.155Z,63.35
2023-04-09T20:22:33.830Z,56.08
2023-04-09T20:25:00.269Z,57.38
2023-04-09T20:27:26.784Z,92.57
2023-04-09T20:29:53.233Z,75.68
2023-04-09T20:32:20.145Z,56.95
2023-04-09T20:34:46.709Z,57.58
2023-04-09T20:37:13.173Z,55.88
2023-04-09T20:39:39.651Z,56.33
2023-04-09T20:42:06.094Z,90.30
2023-04-09T20:44:32.550Z,98.55
2023-04-09T20:46:58.960Z,101.25
2023-04-09T20:49:25.463Z,53.17
2023-04-09T20:51:51.966Z,44.88
2023-04-09T20:54:18.425Z,39.95
2023-04-09T20:56:44.907Z,38.95
2023-04-09T20:59:11.379Z,33.92
2023-04-09T21:01:37.947Z,39.20
2023-04-09T21:04:04.674Z,105.78
2023-04-09T21:06:31.243Z,54.83
2023-04-09T21:08:58.658Z,32.58
2023-04-09T21:11:26.382Z,38.80
2023-04-09T21:13:55.109Z,33.17
2023-04-09T21:16:22.072Z,40.15
2023-04-09T21:18:48.624Z,46.80
2023-04-09T21:21:15.125Z,52.55
2023-04-09T21:23:41.631Z,59.28
2023-04-09T21:26:08.107Z,56.92
2023-04-09T21:28:34.552Z,53.75
2023-04-09T21:31:01.003Z,50.67
2023-04-09T21:33:29.343Z,40.30
2023-04-09T21:35:56.712Z,39.47
2023-04-09T21:38:23.303Z,32.53
2023-04-09T21:40:49.777Z,29.23
2023-04-09T21:43:16.203Z,30.60
2023-04-09T21:45:42.667Z,29.08
2023-04-09T21:48:09.091Z,24.83
2023-04-09T21:50:35.600Z,31.88
2023-04-09T21:53:02.136Z,38.65
2023-04-09T21:55:28.668Z,38.95
2023-04-09T21:57:55.136Z,34.83
2023-04-09T22:00:21.605Z,33.65
2023-04-09T22:02:48.265Z,31.17
2023-04-09T22:05:14.822Z,33.53
2023-04-09T22:07:41.952Z,32.53
2023-04-09T22:10:09.068Z,33.45
2023-04-09T22:12:35.610Z,31.77
2023-04-09T22:15:03.698Z,33.17
2023-04-09T22:17:30.238Z,30.02
2023-04-09T22:19:56.803Z,29.52
2023-04-09T22:22:23.266Z,29.02
2023-04-09T22:24:49.719Z,26.50
2023-04-09T22:27:16.219Z,25.88
2023-04-09T22:29:42.708Z,25.63
2023-04-09T22:32:09.403Z,29.85
2023-04-09T22:34:35.871Z,27.08
2023-04-09T22:37:02.323Z,32.75
2023-04-09T22:39:28.778Z,37.53
2023-04-09T22:41:55.283Z,35.08
2023-04-09T22:44:21.772Z,33.70
2023-04-09T22:46:48.270Z,37.22
2023-04-09T22:49:14.815Z,35.95
2023-04-09T22:51:41.872Z,29.23
2023-04-09T22:54:09.076Z,31.17
2023-04-09T22:56:35.662Z,28.90
2023-04-09T22:59:02.397Z,31.50
2023-04-09T23:01:29.252Z,28.83
2023-04-09T23:03:55.821Z,30.45
2023-04-09T23:06:22.308Z,28.85
2023-04-09T23:08:48.801Z,32.63
2023-04-09T23:11:15.295Z,28.20
2023-04-09T23:13:41.978Z,31.02
2023-04-09T23:16:10.032Z,31.13
2023-04-09T23:18:36.928Z,29.02
2023-04-09T23:21:07.433Z,29.75
2023-04-09T23:23:34.854Z,30.98
2023-04-09T23:26:01.540Z,33.70
2023-04-09T23:28:28.304Z,31.98
2023-04-09T23:30:55.550Z,30.50
2023-04-09T23:33:22.580Z,25.67
2023-04-09T23:35:49.076Z,27.83
2023-04-09T23:38:15.600Z,27.70
2023-04-09T23:40:42.939Z,25.25
2023-04-09T23:43:09.621Z,28.38
2023-04-09T23:45:36.062Z,32.22
2023-04-09T23:48:03.756Z,31.30
2023-04-09T23:50:30.251Z,35.53
2023-04-09T23:52:56.817Z,32.35
2023-04-09T23:55:23.310Z,35.55
2023-04-09T23:57:49.775Z,40.83
